Time;durP1;ratioP1;P1;durP2;ratioP2;P2;SDS_P1;SDS_P2;PMS_P1;PMS_P2;Temp;Humidity;BMP_temperature;BMP_pressure;BME280_temperature;BME280_humidity;BME280_pressure;Samples;Min_cycle;Max_cycle;Signal;HPM_P1;HPM_P2
2022/08/24 00:00:00;;;;;;;41.80;32.75;;;;;;;22.92;58.70;100824.41;5057269;28;20068;-56
2022/08/24 00:02:27;;;;;;;39.80;33.00;;;;;;;22.88;58.92;100824.66;5023425;28;20030;-56
2022/08/24 00:04:53;;;;;;;43.95;32.85;;;;;;;22.84;58.92;100823.13;5023878;28;20337;-56
2022/08/24 00:07:20;;;;;;;43.85;33.05;;;;;;;22.84;58.94;100829.25;5040916;28;20080;-56
2022/08/24 00:09:46;;;;;;;42.38;33.75;;;;;;;22.87;59.17;100831.75;5040069;28;20031;-57
2022/08/24 00:12:13;;;;;;;42.47;32.20;;;;;;;22.78;59.05;100823.47;5045929;28;20087;-56
2022/08/24 00:14:39;;;;;;;44.35;33.70;;;;;;;22.73;59.28;100818.41;5047299;28;20044;-57
2022/08/24 00:17:05;;;;;;;37.97;31.58;;;;;;;22.70;60.11;100823.88;5046854;28;20052;-56
2022/08/24 00:19:31;;;;;;;40.00;31.48;;;;;;;22.66;59.88;100825.84;5047070;28;20541;-56
2022/08/24 00:21:57;;;;;;;40.72;31.02;;;;;;;22.70;60.03;100827.38;5046951;28;20052;-56
2022/08/24 00:24:23;;;;;;;46.20;32.80;;;;;;;22.65;59.86;100828.56;5038387;28;20026;-57
2022/08/24 00:26:48;;;;;;;42.38;32.72;;;;;;;22.63;59.92;100825.13;5027126;28;20214;-56
2022/08/24 00:29:16;;;;;;;45.63;32.95;;;;;;;22.56;60.51;100848.38;5027108;28;20334;-57
2022/08/24 00:31:41;;;;;;;43.35;31.05;;;;;;;22.55;60.18;100836.97;5038927;28;20026;-56
2022/08/24 00:34:07;;;;;;;47.28;34.78;;;;;;;22.47;60.78;100825.94;5026876;28;20030;-57
2022/08/24 00:36:33;;;;;;;44.08;32.28;;;;;;;22.44;60.83;100825.28;5026811;28;20064;-57
2022/08/24 00:38:59;;;;;;;39.40;31.27;;;;;;;22.50;60.35;100833.72;5031773;28;20038;-57
2022/08/24 00:41:26;;;;;;;44.30;31.77;;;;;;;22.48;60.60;100840.03;5065451;28;20068;-57
2022/08/24 00:43:55;;;;;;;39.28;31.27;;;;;;;22.34;60.89;100820.47;5066565;28;20033;-57
2022/08/24 00:46:37;;;;;;;39.90;32.35;;;;;;;22.38;61.79;100858.13;5066492;28;20029;-56
2022/08/24 00:49:23;;;;;;;41.08;31.90;;;;;;;22.39;62.12;100834.28;5044327;28;20037;-57
2022/08/24 00:52:02;;;;;;;43.33;33.33;;;;;;;22.41;61.26;100826.28;5026545;28;20033;-57
2022/08/24 00:54:32;;;;;;;46.38;32.63;;;;;;;22.08;61.68;100787.50;5029472;28;20048;-57
2022/08/24 00:57:01;;;;;;;42.10;32.40;;;;;;;22.08;61.61;100790.13;5046328;28;20056;-57
2022/08/24 00:59:35;;;;;;;42.85;32.17;;;;;;;22.31;61.95;100846.16;5046270;28;20116;-56
2022/08/24 01:02:10;;;;;;;40.50;32.33;;;;;;;22.20;62.10;100825.56;5027441;28;20052;-56
2022/08/24 01:04:42;;;;;;;45.28;31.95;;;;;;;22.24;62.24;100841.16;5029221;28;20097;-56
2022/08/24 01:07:08;;;;;;;44.40;31.98;;;;;;;22.23;62.18;100839.47;5037998;28;20048;-56
2022/08/24 01:09:33;;;;;;;47.15;32.97;;;;;;;22.19;62.13;100835.28;5045995;28;20025;-56
2022/08/24 01:11:59;;;;;;;44.15;32.95;;;;;;;22.20;62.79;100847.56;5048232;28;20026;-55
2022/08/24 01:14:25;;;;;;;43.00;33.45;;;;;;;22.20;62.74;100846.69;5066181;28;20021;-56
2022/08/24 01:19:38;;;;;;;46.72;34.63;;;;;;;22.17;62.76;100838.94;5061201;28;20041;-56
2022/08/24 01:22:15;;;;;;;43.25;34.45;;;;;;;22.04;63.45;100831.63;5065776;28;20036;-56
2022/08/24 01:24:42;;;;;;;42.13;33.45;;;;;;;22.08;63.15;100835.00;5046941;28;20026;-56
2022/08/24 01:27:10;;;;;;;45.00;33.70;;;;;;;22.07;62.86;100838.56;5032514;28;20084;-56
2022/08/24 01:29:36;;;;;;;44.03;33.85;;;;;;;22.04;63.18;100838.72;5065874;28;20017;-56
2022/08/24 01:32:03;;;;;;;45.47;34.20;;;;;;;22.01;63.42;100838.88;5064416;28;20025;-55
2022/08/24 01:34:28;;;;;;;41.38;34.75;;;;;;;22.00;63.52;100842.44;5037065;28;20022;-56
2022/08/24 01:36:55;;;;;;;45.88;35.38;;;;;;;21.82;63.33;100818.69;5035218;28;20052;-56
2022/08/24 01:39:25;;;;;;;42.38;34.05;;;;;;;21.62;63.61;100785.41;5045249;28;20092;-56
2022/08/24 01:41:51;;;;;;;44.03;34.40;;;;;;;21.85;64.03;100839.63;5045490;28;20029;-56
2022/08/24 01:44:18;;;;;;;44.85;34.80;;;;;;;21.57;63.75;100797.13;5045588;28;20394;-56
2022/08/24 01:46:47;;;;;;;45.22;33.72;;;;;;;21.51;64.24;100782.44;5029151;28;20032;-56
2022/08/24 01:49:13;;;;;;;43.60;32.92;;;;;;;21.74;63.72;100841.97;5049333;28;20226;-56
2022/08/24 01:51:40;;;;;;;39.53;33.15;;;;;;;21.75;63.77;100846.31;5049492;28;20354;-56
2022/08/24 01:54:06;;;;;;;42.13;32.85;;;;;;;21.77;64.05;100846.22;5045348;28;20068;-56
2022/08/24 01:56:33;;;;;;;40.88;32.97;;;;;;;21.78;64.10;100846.16;5057474;28;20049;-56
2022/08/24 01:59:00;;;;;;;43.28;33.42;;;;;;;21.76;63.50;100845.34;5061598;28;20033;-56
2022/08/24 02:01:28;;;;;;;46.30;33.67;;;;;;;21.69;64.19;100844.81;5051280;28;20029;-56
2022/08/24 02:03:54;;;;;;;39.97;31.40;;;;;;;21.75;64.10;100843.66;5043783;28;20092;-56
2022/08/24 02:06:19;;;;;;;39.88;31.63;;;;;;;21.72;64.13;100849.09;5045126;28;20052;-56
2022/08/24 02:08:45;;;;;;;43.60;33.65;;;;;;;21.61;64.14;100846.97;5045156;28;20084;-55
2022/08/24 02:11:11;;;;;;;42.03;33.05;;;;;;;21.58;65.08;100855.03;5044968;28;20025;-55
2022/08/24 02:13:39;;;;;;;38.97;32.03;;;;;;;21.30;64.95;100802.78;5029943;28;20345;-56
2022/08/24 02:16:06;;;;;;;41.72;32.38;;;;;;;21.57;64.71;100855.13;5024791;28;20355;-55
2022/08/24 02:18:33;;;;;;;43.28;32.83;;;;;;;21.57;64.74;100850.69;5030939;28;20708;-56
2022/08/24 02:21:00;;;;;;;40.97;32.28;;;;;;;21.54;64.94;100854.31;5046246;28;20032;-56
2022/08/24 02:23:27;;;;;;;39.42;32.75;;;;;;;21.61;64.57;100851.41;5064010;28;20037;-56
2022/08/24 02:25:53;;;;;;;37.22;31.85;;;;;;;21.59;64.67;100856.75;5061995;28;20205;-56
2022/08/24 02:28:20;;;;;;;45.22;33.80;;;;;;;21.54;64.79;100850.84;5051962;28;20084;-56
2022/08/24 02:30:46;;;;;;;40.63;32.40;;;;;;;21.56;64.69;100854.25;5036793;28;20080;-57
2022/08/24 02:33:11;;;;;;;42.72;32.15;;;;;;;21.57;64.61;100860.41;5058100;28;20034;-56
2022/08/24 02:35:37;;;;;;;42.67;32.22;;;;;;;21.55;65.05;100860.47;5044573;28;20375;-56
2022/08/24 02:38:03;;;;;;;39.03;32.42;;;;;;;21.50;65.71;100860.63;5044772;28;20089;-56
2022/08/24 02:40:31;;;;;;;38.97;31.65;;;;;;;21.49;65.55;100858.09;5058070;28;20048;-56
2022/08/24 02:42:57;;;;;;;41.50;33.72;;;;;;;21.49;65.35;100858.94;5064395;28;20257;-56
2022/08/24 02:45:23;;;;;;;41.58;32.67;;;;;;;21.49;65.50;100860.72;5054854;28;20085;-57
2022/08/24 02:47:49;;;;;;;40.47;32.97;;;;;;;21.45;65.64;100865.28;5023249;28;20060;-56
2022/08/24 02:50:16;;;;;;;46.58;35.28;;;;;;;21.45;66.07;100861.78;5024784;28;20267;-56
2022/08/24 02:52:42;;;;;;;45.47;34.00;;;;;;;21.43;65.75;100861.88;5039880;28;20026;-57
2022/08/24 02:55:12;;;;;;;43.58;33.60;;;;;;;21.15;65.66;100820.16;5044030;28;20229;-57
2022/08/24 02:57:38;;;;;;;42.83;31.77;;;;;;;21.46;65.31;100867.00;5041464;28;20024;-56
2022/08/24 03:00:07;;;;;;;43.78;33.33;;;;;;;21.45;65.52;100864.41;5044026;28;20026;-57
2022/08/24 03:02:32;;;;;;;43.13;31.42;;;;;;;21.44;65.38;100876.75;5044115;28;20026;-56
2022/08/24 03:04:58;;;;;;;41.05;32.13;;;;;;;21.48;65.55;100870.41;5044138;28;20029;-57
2022/08/24 03:07:23;;;;;;;43.63;32.28;;;;;;;21.47;65.59;100870.50;5031106;28;20026;-56
2022/08/24 03:09:49;;;;;;;41.55;32.67;;;;;;;21.48;65.41;100875.69;5024074;28;20323;-56
2022/08/24 03:12:14;;;;;;;46.80;33.47;;;;;;;21.48;65.62;100872.22;5023967;28;20376;-56
2022/08/24 03:14:40;;;;;;;40.85;31.80;;;;;;;21.46;65.46;100877.56;5024095;28;20028;-56
2022/08/24 03:17:06;;;;;;;42.63;32.08;;;;;;;21.50;65.35;100878.25;5043965;28;20037;-57
2022/08/24 03:19:32;;;;;;;43.75;32.63;;;;;;;21.42;66.07;100889.16;5056423;28;20029;-57
2022/08/24 03:21:58;;;;;;;38.97;30.48;;;;;;;21.48;65.64;100895.94;5045090;28;20037;-56
2022/08/24 03:24:23;;;;;;;41.78;31.80;;;;;;;21.52;65.82;100884.31;5027836;28;20022;-56
2022/08/24 03:26:49;;;;;;;37.60;32.47;;;;;;;21.50;65.77;100875.63;5043465;28;20097;-56
2022/08/24 03:29:15;;;;;;;44.30;33.35;;;;;;;21.55;66.15;100886.84;5023933;28;20060;-56
2022/08/24 03:31:40;;;;;;;42.88;32.83;;;;;;;21.57;65.78;100889.41;5070500;28;20191;-56
2022/08/24 03:34:06;;;;;;;47.25;33.53;;;;;;;21.61;65.63;100893.59;5033243;28;20030;-56
2022/08/24 03:36:31;;;;;;;40.00;31.52;;;;;;;21.65;65.64;100888.09;5023674;28;20018;-57
2022/08/24 03:38:57;;;;;;;36.67;31.48;;;;;;;21.69;65.49;100886.16;5023856;28;20076;-57
2022/08/24 03:41:24;;;;;;;41.38;31.10;;;;;;;21.75;65.51;100890.28;5042594;28;20108;-56
2022/08/24 03:43:49;;;;;;;41.42;32.15;;;;;;;21.80;65.14;100894.38;5027278;28;20333;-56
2022/08/24 03:46:19;;;;;;;40.33;30.65;;;;;;;21.86;65.48;100896.75;5023518;28;20022;-56
2022/08/24 03:48:46;;;;;;;37.63;31.65;;;;;;;21.93;64.92;100899.06;5023297;28;20049;-56
2022/08/24 03:51:14;;;;;;;42.80;31.73;;;;;;;21.94;64.89;100891.06;5042562;28;20111;-56
2022/08/24 03:53:41;;;;;;;41.42;32.83;;;;;;;21.98;65.13;100889.16;5043101;28;20391;-56
2022/08/24 03:56:07;;;;;;;42.90;30.95;;;;;;;22.01;64.82;100889.00;5043150;28;20033;-56
2022/08/24 03:58:37;;;;;;;38.22;29.85;;;;;;;21.78;64.11;100848.78;5043008;28;20325;-56
2022/08/24 04:01:05;;;;;;;38.97;29.55;;;;;;;22.11;64.85;100898.16;5033517;28;20029;-56
2022/08/24 04:03:35;;;;;;;35.38;28.63;;;;;;;22.19;64.19;100898.63;5027206;28;20033;-56
2022/08/24 04:06:01;;;;;;;36.20;28.45;;;;;;;22.22;64.28;100887.06;5043200;28;20029;-55
2022/08/24 04:08:27;;;;;;;38.22;28.77;;;;;;;22.27;63.98;100890.31;5043500;28;20026;-56
2022/08/24 04:10:53;;;;;;;35.17;27.73;;;;;;;22.34;63.82;100894.38;5043070;28;20025;-56
2022/08/24 04:13:19;;;;;;;41.85;28.08;;;;;;;22.33;63.99;100891.81;5042834;28;20199;-56
2022/08/24 04:15:45;;;;;;;41.03;27.38;;;;;;;22.40;61.57;100895.84;5043035;28;20025;-56
2022/08/24 04:18:11;;;;;;;38.88;27.27;;;;;;;22.47;62.09;100896.38;5042981;28;20265;-57
2022/08/24 04:20:42;;;;;;;44.90;27.27;;;;;;;22.52;61.50;100897.84;5043034;28;20088;-56
2022/08/24 04:23:10;;;;;;;38.30;26.98;;;;;;;22.30;60.29;100855.00;5041916;28;20029;-56
2022/08/24 04:25:44;;;;;;;38.58;26.35;;;;;;;22.62;61.28;100889.44;5039834;28;20101;-56
2022/08/24 04:28:12;;;;;;;40.15;25.98;;;;;;;22.70;59.11;100901.34;5041616;28;20052;-55
2022/08/24 04:30:43;;;;;;;42.65;26.70;;;;;;;22.75;59.24;100896.66;5029122;28;20246;-56
2022/08/24 04:33:11;;;;;;;40.85;26.33;;;;;;;22.88;58.74;100917.13;5040734;28;20025;-56
2022/08/24 04:35:44;;;;;;;41.17;27.20;;;;;;;22.69;57.99;100856.53;5023023;28;20038;-56
2022/08/24 04:38:09;;;;;;;37.55;24.52;;;;;;;23.03;57.98;100905.75;5059328;28;20217;-56
2022/08/24 04:40:39;;;;;;;34.75;23.85;;;;;;;22.80;56.59;100858.56;5039839;28;20037;-56
2022/08/24 04:43:05;;;;;;;30.35;22.98;;;;;;;23.20;57.95;100910.16;5039583;28;20048;-56
2022/08/24 04:45:32;;;;;;;30.20;23.40;;;;;;;23.28;57.07;100901.78;5037015;28;20021;-56
2022/08/24 04:47:58;;;;;;;30.92;23.27;;;;;;;23.32;56.72;100897.19;5021541;28;20018;-56
2022/08/24 04:50:24;;;;;;;37.17;24.75;;;;;;;23.47;56.85;100906.06;5041266;28;20172;-56
2022/08/24 04:52:51;;;;;;;34.35;22.77;;;;;;;23.47;56.42;100903.41;5043677;28;20310;-55
2022/08/24 04:55:17;;;;;;;35.15;24.23;;;;;;;23.68;55.70;100904.00;5040456;28;20044;-56
2022/08/24 04:57:42;;;;;;;31.38;22.70;;;;;;;23.76;56.39;100907.06;5041292;28;20040;-56
2022/08/24 05:00:09;;;;;;;34.88;22.95;;;;;;;23.69;55.40;100898.63;5066464;28;20025;-56
2022/08/24 05:02:38;;;;;;;33.53;22.20;;;;;;;23.85;54.70;100900.38;5045626;28;20027;-56
2022/08/24 05:05:06;;;;;;;31.48;22.80;;;;;;;23.85;54.76;100882.72;5045147;28;20082;-55
2022/08/24 05:07:32;;;;;;;36.72;23.48;;;;;;;24.01;53.67;100897.72;5031327;28;20025;-57
2022/08/24 05:09:57;;;;;;;29.92;22.17;;;;;;;24.18;54.57;100887.00;5024657;28;20092;-56
2022/08/24 05:12:23;;;;;;;36.30;22.52;;;;;;;24.25;53.86;100896.28;5033276;28;20028;-56
2022/08/24 05:14:49;;;;;;;31.05;23.65;;;;;;;24.34;54.10;100899.31;5065627;28;20032;-56
2022/08/24 05:17:14;;;;;;;29.60;22.23;;;;;;;24.43;53.63;100904.09;5045589;28;20052;-57
2022/08/24 05:19:40;;;;;;;33.60;23.35;;;;;;;24.46;52.73;100903.91;5045652;28;20105;-56
2022/08/24 05:22:05;;;;;;;34.65;22.85;;;;;;;24.47;52.83;100909.09;5036041;28;20072;-57
2022/08/24 05:24:31;;;;;;;34.55;24.10;;;;;;;24.60;53.07;100911.06;5030236;28;20062;-57
2022/08/24 05:26:59;;;;;;;38.47;25.27;;;;;;;24.60;52.45;100909.25;5039505;28;20025;-57
2022/08/24 05:29:25;;;;;;;34.22;23.70;;;;;;;24.56;52.53;100913.00;5043631;28;20041;-56
2022/08/24 05:31:50;;;;;;;37.95;26.17;;;;;;;24.75;52.39;100912.75;5042542;28;20068;-56
2022/08/24 05:34:17;;;;;;;32.97;26.27;;;;;;;24.86;52.51;100906.78;5044443;28;20352;-57
2022/08/24 05:36:43;;;;;;;38.40;26.38;;;;;;;25.02;52.83;100906.69;5043773;28;20089;-56
2022/08/24 05:39:11;;;;;;;32.38;21.08;;;;;;;25.16;51.58;100900.53;5043846;28;20026;-56
2022/08/24 05:41:41;;;;;;;30.70;20.02;;;;;;;25.20;51.11;100903.81;5045376;28;20049;-56
2022/08/24 05:44:07;;;;;;;19.70;12.88;;;;;;;25.22;48.36;100912.53;5043960;28;20034;-57
2022/08/24 05:46:33;;;;;;;18.15;13.77;;;;;;;25.35;48.27;100904.69;5043682;28;20037;-56
2022/08/24 05:49:00;;;;;;;21.35;13.68;;;;;;;25.49;48.15;100904.66;5061222;28;20037;-56
2022/08/24 05:51:26;;;;;;;18.67;13.00;;;;;;;25.54;47.32;100914.94;5044554;28;20390;-56
2022/08/24 05:53:51;;;;;;;18.73;12.57;;;;;;;25.64;47.30;100911.63;5044791;28;20029;-57
2022/08/24 05:56:19;;;;;;;17.70;11.57;;;;;;;25.68;46.58;100906.94;5044438;28;20307;-56
2022/08/24 05:58:45;;;;;;;13.13;11.73;;;;;;;25.80;47.02;100908.81;5044575;28;20049;-56
2022/08/24 06:01:15;;;;;;;16.50;11.27;;;;;;;25.79;46.14;100907.09;5042415;28;20116;-56
2022/08/24 06:03:40;;;;;;;19.05;10.77;;;;;;;25.92;47.07;100906.28;5042240;28;20037;-56
2022/08/24 06:06:08;;;;;;;17.50;11.25;;;;;;;25.87;45.86;100911.91;5041150;28;20257;-57
2022/08/24 06:08:39;;;;;;;17.13;11.43;;;;;;;25.92;47.06;100908.94;5025038;28;20032;-56
2022/08/24 06:11:04;;;;;;;20.73;11.48;;;;;;;26.01;45.90;100911.88;5025085;28;20026;-56
2022/08/24 06:13:30;;;;;;;16.48;10.50;;;;;;;26.10;45.93;100907.75;5024791;28;20060;-56
2022/08/24 06:16:10;;;;;;;15.88;11.40;;;;;;;25.97;45.45;100870.50;5063844;28;20033;-56
2022/08/24 06:18:38;;;;;;;16.98;10.85;;;;;;;26.29;46.15;100914.47;5039779;28;20036;-55
2022/08/24 06:21:09;;;;;;;21.15;11.43;;;;;;;26.13;45.61;100875.66;5029049;28;20045;-56
2022/08/24 06:23:35;;;;;;;15.70;10.52;;;;;;;26.45;45.36;100908.94;5043331;28;20033;-56
2022/08/24 06:28:49;;;;;;;18.33;11.77;;;;;;;26.68;44.29;100905.59;5034208;28;20026;-56
2022/08/24 06:31:15;;;;;;;16.55;11.43;;;;;;;26.80;42.46;100913.66;5042108;28;20029;-56
2022/08/24 06:33:41;;;;;;;14.70;11.05;;;;;;;26.85;43.61;100907.06;5042506;28;20032;-57
2022/08/24 06:36:07;;;;;;;17.35;10.73;;;;;;;26.91;44.07;100903.13;5043105;28;20326;-57
2022/08/24 06:38:33;;;;;;;21.50;11.57;;;;;;;26.94;44.62;100912.72;5046873;28;20043;-57
2022/08/24 06:40:59;;;;;;;19.02;11.60;;;;;;;27.00;42.96;100914.91;5042041;28;20026;-57
2022/08/24 06:43:24;;;;;;;18.55;10.20;;;;;;;27.03;42.16;100914.69;5041397;28;20331;-57
2022/08/24 06:45:52;;;;;;;16.67;10.90;;;;;;;27.13;43.35;100918.38;5041896;28;20018;-57
2022/08/24 06:48:17;;;;;;;16.10;11.32;;;;;;;27.07;42.81;100904.69;5041803;28;20040;-56
2022/08/24 06:50:43;;;;;;;15.15;10.48;;;;;;;27.14;42.71;100912.13;5041773;28;20048;-57
2022/08/24 06:53:13;;;;;;;15.77;9.95;;;;;;;27.13;40.54;100906.91;5037757;28;20029;-56
2022/08/24 06:55:47;;;;;;;19.10;10.02;;;;;;;27.31;40.69;100910.91;5043792;28;20048;-57
2022/08/24 06:58:13;;;;;;;18.67;10.38;;;;;;;27.43;40.84;100909.19;5031336;28;20041;-55
2022/08/24 07:00:39;;;;;;;18.27;9.82;;;;;;;27.53;39.56;100906.72;5026128;28;20030;-55
2022/08/24 07:03:05;;;;;;;16.90;9.65;;;;;;;27.62;40.42;100911.38;5037198;28;20065;-57
2022/08/24 07:05:30;;;;;;;17.13;10.43;;;;;;;27.87;39.51;100907.72;5043526;28;20029;-56
2022/08/24 07:07:58;;;;;;;17.15;11.07;;;;;;;28.11;38.51;100914.03;5043054;28;20400;-57
2022/08/24 07:10:23;;;;;;;21.42;10.70;;;;;;;28.23;38.74;100907.75;5044705;28;20036;-57
2022/08/24 07:12:49;;;;;;;16.60;10.98;;;;;;;27.92;38.24;100886.09;5041338;28;20052;-57
2022/08/24 07:15:15;;;;;;;17.73;10.10;;;;;;;28.12;37.76;100905.03;5041046;28;20083;-57
2022/08/24 07:17:40;;;;;;;20.40;10.93;;;;;;;28.20;38.10;100913.31;5042586;28;20033;-58
2022/08/24 07:20:08;;;;;;;19.75;10.43;;;;;;;28.30;39.28;100906.31;5043158;28;20349;-58
2022/08/24 07:22:33;;;;;;;18.40;9.77;;;;;;;28.36;38.91;100902.31;5039993;28;20095;-57
2022/08/24 07:24:59;;;;;;;17.85;10.13;;;;;;;28.48;37.31;100898.72;5039547;28;20021;-57
2022/08/24 07:27:24;;;;;;;18.33;8.98;;;;;;;28.42;36.91;100891.19;5038975;28;20030;-58
2022/08/24 07:29:53;;;;;;;17.83;9.32;;;;;;;28.39;36.46;100870.97;5022296;28;20034;-56
2022/08/24 07:32:19;;;;;;;17.65;8.48;;;;;;;28.61;35.86;100900.44;5060085;28;20029;-56
2022/08/24 07:34:45;;;;;;;13.90;7.90;;;;;;;28.40;37.84;100894.00;5049217;28;20022;-57
2022/08/24 07:37:11;;;;;;;13.30;7.18;;;;;;;28.42;34.44;100891.19;5042953;28;20218;-56
2022/08/24 07:39:37;;;;;;;17.40;7.47;;;;;;;28.48;37.01;100890.72;5032904;28;20046;-56
2022/08/24 07:42:03;;;;;;;16.17;6.75;;;;;;;28.46;34.70;100895.34;5024126;28;20040;-57
2022/08/24 07:44:30;;;;;;;12.82;7.32;;;;;;;28.62;34.99;100894.13;5036945;28;20021;-57
2022/08/24 07:46:56;;;;;;;19.05;7.47;;;;;;;28.66;35.25;100893.81;5041003;28;20026;-57
2022/08/24 07:49:21;;;;;;;15.07;7.35;;;;;;;28.83;34.83;100895.13;5037143;28;20049;-56
2022/08/24 07:51:47;;;;;;;19.30;7.95;;;;;;;28.91;34.56;100889.19;5039117;28;20060;-56
2022/08/24 07:54:13;;;;;;;13.02;7.03;;;;;;;29.12;34.49;100891.09;5041120;28;20032;-58
2022/08/24 07:56:41;;;;;;;12.45;6.07;;;;;;;29.09;33.76;100895.72;5042112;28;20018;-57
2022/08/24 07:59:07;;;;;;;12.07;6.50;;;;;;;29.19;33.69;100890.47;5037475;28;20072;-57
2022/08/24 08:01:33;;;;;;;11.65;6.20;;;;;;;29.21;34.35;100891.19;5040465;28;20318;-57
2022/08/24 08:03:59;;;;;;;10.70;5.38;;;;;;;29.10;32.00;100881.41;5044720;28;20217;-56
2022/08/24 08:06:24;;;;;;;11.98;5.60;;;;;;;29.08;32.53;100883.34;5040799;28;20334;-57
2022/08/24 08:08:50;;;;;;;8.30;5.20;;;;;;;29.19;32.13;100887.81;5042616;28;20032;-56
2022/08/24 08:11:15;;;;;;;9.50;5.70;;;;;;;29.21;32.07;100888.53;5040725;28;20072;-55
2022/08/24 08:13:41;;;;;;;12.30;5.78;;;;;;;29.35;33.08;100884.78;5042902;28;20282;-56
2022/08/24 08:16:07;;;;;;;8.77;5.93;;;;;;;29.38;32.72;100886.34;5038340;28;20056;-56
2022/08/24 08:18:33;;;;;;;10.68;5.88;;;;;;;29.39;32.68;100880.88;5039670;28;20034;-57
2022/08/24 08:20:58;;;;;;;11.13;5.50;;;;;;;29.19;34.23;100885.16;5035478;28;20049;-56
2022/08/24 08:26:19;;;;;;;9.32;5.22;;;;;;;28.62;34.37;100839.03;5036776;28;20033;-57
2022/08/24 08:28:46;;;;;;;10.13;5.63;;;;;;;29.17;33.46;100875.56;5056270;28;20089;-57
2022/08/24 08:31:11;;;;;;;10.45;5.47;;;;;;;29.32;31.93;100862.84;5042503;28;20033;-57
2022/08/24 08:33:37;;;;;;;12.38;5.63;;;;;;;29.64;31.93;100875.34;5050653;28;20055;-58
2022/08/24 08:36:10;;;;;;;8.73;5.25;;;;;;;29.43;31.68;100871.66;5054513;28;20053;-58
2022/08/24 08:38:38;;;;;;;10.52;5.32;;;;;;;29.69;31.66;100876.66;5041709;28;20096;-58
2022/08/24 08:41:20;;;;;;;7.30;4.75;;;;;;;29.80;32.73;100870.44;5042054;28;20048;-58
2022/08/24 08:44:00;;;;;;;;;;;;;;;29.92;31.32;100872.06;5042932;28;20037;-58
2022/08/24 08:46:44;;;;;;;10.93;4.22;;;;;;;29.84;31.49;100858.50;5044210;28;20213;-57
2022/08/24 08:49:36;;;;;;;11.90;4.45;;;;;;;29.86;29.69;100851.22;5044326;28;20029;-57
2022/08/24 08:52:23;;;;;;;12.52;4.55;;;;;;;30.16;28.88;100852.28;5043240;28;20041;-58
2022/08/24 08:54:57;;;;;;;6.45;3.70;;;;;;;30.44;29.36;100865.94;5045278;28;20026;-58
2022/08/24 08:57:38;;;;;;;8.43;3.63;;;;;;;30.38;29.15;100861.94;5043491;28;20318;-57
2022/08/24 09:00:07;;;;;;;7.63;3.60;;;;;;;30.64;28.37;100861.53;5043442;28;20072;-57
2022/08/24 09:02:45;;;;;;;7.78;3.45;;;;;;;30.71;28.08;100865.34;5046016;28;20048;-59
2022/08/24 09:05:14;;;;;;;5.47;3.45;;;;;;;30.87;27.91;100853.31;5045156;28;20092;-59
2022/08/24 09:07:45;;;;;;;9.15;3.95;;;;;;;30.96;30.07;100857.84;5042540;28;20044;-58
2022/08/24 09:10:37;;;;;;;;;;;;;;;31.08;28.78;100859.44;5044442;28;20045;-59
2022/08/24 09:13:34;;;;;;;12.20;4.30;;;;;;;30.86;27.35;100862.34;5037546;28;19948;-58
2022/08/24 09:16:09;;;;;;;8.57;3.60;;;;;;;30.90;27.71;100858.38;5042753;28;20026;-58
2022/08/24 09:18:46;;;;;;;6.82;3.95;;;;;;;30.98;28.56;100863.91;5044775;28;20028;-58
2022/08/24 09:21:49;;;;;;;8.88;3.63;;;;;;;30.98;28.89;100851.38;5044908;28;20036;-58
2022/08/24 09:24:17;;;;;;;7.40;3.70;;;;;;;31.13;29.47;100851.84;5043160;28;20017;-58
2022/08/24 09:26:55;;;;;;;7.03;3.95;;;;;;;30.90;28.67;100812.91;5045283;28;20243;-58
2022/08/24 09:29:37;;;;;;;6.50;4.00;;;;;;;31.25;27.40;100847.22;5044234;28;20033;-57
2022/08/24 09:32:16;;;;;;;;;;;;;;;31.08;27.06;100843.38;5044934;28;20033;-57
2022/08/24 09:34:56;;;;;;;6.57;3.20;;;;;;;30.77;27.31;100843.44;5039381;28;20128;-57
2022/08/24 09:37:35;;;;;;;9.18;3.58;;;;;;;30.94;27.90;100806.28;5043164;28;20055;-56
2022/08/24 09:40:27;;;;;;;7.30;3.03;;;;;;;31.02;29.45;100843.94;5042699;28;20057;-58
2022/08/24 09:43:08;;;;;;;5.25;3.53;;;;;;;31.03;30.77;100851.00;5029339;28;20037;-58
2022/08/24 09:45:55;;;;;;;5.63;3.25;;;;;;;30.94;30.17;100835.72;5028586;28;20317;-57
2022/08/24 09:48:23;;;;;;;6.07;2.45;;;;;;;30.88;27.07;100842.47;5042626;28;20044;-57
2022/08/24 09:51:17;;;;;;;4.93;2.88;;;;;;;30.77;26.13;100839.91;5026692;28;20422;-57
2022/08/24 09:53:48;;;;;;;10.52;2.47;;;;;;;30.83;26.48;100849.22;5028205;28;20052;-57
2022/08/24 09:56:32;;;;;;;6.45;2.55;;;;;;;30.88;26.03;100846.97;5041885;28;20033;-57
2022/08/24 09:59:19;;;;;;;4.75;2.70;;;;;;;30.99;26.91;100844.19;5037370;28;20132;-57
2022/08/24 10:02:05;;;;;;;7.80;2.95;;;;;;;31.02;26.37;100841.28;5032303;28;20038;-57
2022/08/24 10:04:57;;;;;;;4.10;2.63;;;;;;;31.07;25.92;100843.53;5025305;28;20025;-57
2022/08/24 10:07:42;;;;;;;5.80;2.17;;;;;;;31.08;25.15;100838.03;5028083;28;20237;-57
2022/08/24 10:10:32;;;;;;;5.10;2.20;;;;;;;31.13;25.65;100843.81;5042361;28;20048;-57
2022/08/24 10:13:40;;;;;;;8.73;2.30;;;;;;;30.85;27.76;100841.91;5039322;28;20039;-57
2022/08/24 10:16:22;;;;;;;6.97;2.40;;;;;;;30.86;26.52;100844.44;5035671;28;20051;-57
2022/08/24 10:19:05;;;;;;;5.75;2.50;;;;;;;30.86;28.09;100827.56;5048831;28;20048;-57
2022/08/24 10:21:57;;;;;;;6.78;2.53;;;;;;;30.51;27.83;100796.75;5059691;28;20033;-58
2022/08/24 10:24:47;;;;;;;8.60;2.72;;;;;;;30.64;26.65;100829.44;5032009;28;20040;-57
2022/08/24 10:27:23;;;;;;;6.35;2.60;;;;;;;30.76;27.36;100823.00;5024460;28;20342;-57
2022/08/24 10:30:00;;;;;;;7.68;2.38;;;;;;;30.93;26.75;100829.53;5024628;28;20361;-57
2022/08/24 10:32:51;;;;;;;4.85;2.80;;;;;;;30.66;26.84;100789.19;5041908;28;20033;-58
2022/08/24 10:35:46;;;;;;;3.65;2.67;;;;;;;30.74;26.72;100790.22;5039610;28;20029;-58
2022/08/24 10:41:55;;;;;;;4.18;2.70;;;;;;;30.60;26.95;100820.84;5033291;28;20109;-57
2022/08/24 10:44:42;;;;;;;3.70;2.50;;;;;;;30.81;27.04;100826.13;5042266;28;20071;-57
2022/08/24 10:47:27;;;;;;;4.20;2.58;;;;;;;30.54;27.23;100777.75;5028726;28;20025;-58
2022/08/24 10:50:21;;;;;;;3.95;2.53;;;;;;;30.80;26.96;100823.59;5024417;28;20041;-59
2022/08/24 10:53:03;;;;;;;5.18;2.78;;;;;;;30.80;26.50;100813.72;5049199;28;20105;-57
2022/08/24 10:55:31;;;;;;;7.72;3.00;;;;;;;30.68;26.45;100781.88;5052923;28;20029;-57
2022/08/24 10:58:12;;;;;;;6.32;2.92;;;;;;;30.91;27.28;100815.47;5037450;28;20092;-57
2022/08/24 11:00:38;;;;;;;5.60;2.92;;;;;;;30.95;27.68;100810.66;5064020;28;20033;-58
2022/08/24 11:03:09;;;;;;;7.53;2.92;;;;;;;30.94;27.56;100798.25;5024220;28;20087;-57
2022/08/24 11:05:54;;;;;;;;;;;;;;;30.96;26.70;100804.34;5024688;28;20029;-57
2022/08/24 11:08:26;;;;;;;4.10;3.17;;;;;;;31.09;27.01;100802.25;5024236;28;19906;-57
2022/08/24 11:11:41;;;;;;;4.05;2.58;;;;;;;31.06;26.33;100807.06;5032761;28;20040;-57
2022/08/24 11:14:15;;;;;;;4.57;3.05;;;;;;;30.99;26.51;100802.22;5058689;28;20357;-58
2022/08/24 11:16:44;;;;;;;5.60;2.80;;;;;;;31.01;26.63;100818.16;5050406;28;20156;-59
2022/08/24 11:19:30;;;;;;;5.85;2.47;;;;;;;30.80;27.30;100799.53;5043455;28;20071;-58
2022/08/24 11:22:00;;;;;;;5.50;2.67;;;;;;;30.72;28.46;100797.50;5041730;28;20198;-59
2022/08/24 11:24:42;;;;;;;5.75;2.60;;;;;;;30.34;28.65;100756.25;5042707;28;20083;-58
2022/08/24 11:27:21;;;;;;;4.50;2.83;;;;;;;30.56;26.86;100754.41;5026757;28;20097;-57
2022/08/24 11:29:50;;;;;;;7.15;3.72;;;;;;;30.84;27.71;100792.06;5033264;28;20034;-58
2022/08/24 11:32:45;;;;;;;4.70;3.08;;;;;;;30.99;27.06;100796.03;5039725;28;20040;-58
2022/08/24 11:35:25;;;;;;;5.15;3.13;;;;;;;30.59;26.29;100749.63;5043431;28;20030;-58
2022/08/24 11:37:55;;;;;;;8.88;3.15;;;;;;;30.85;26.16;100769.66;5056349;28;20066;-58
2022/08/24 11:40:26;;;;;;;4.45;2.67;;;;;;;30.71;27.52;100747.66;5046257;28;20218;-58